Time;durP1;ratioP1;P1;durP2;ratioP2;P2;SDS_P1;SDS_P2;PMS_P1;PMS_P2;Temp;Humidity;BMP_temperature;BMP_pressure;BME280_temperature;BME280_humidity;BME280_pressure;Samples;Min_cycle;Max_cycle;Signal;HPM_P1;HPM_P2
2023/04/21 00:00:46;;;;;;;1.30;1.20;;;9.60;99.90;;;;;;5093540;28;20190;-76
2023/04/21 00:03:11;;;;;;;1.60;1.50;;;9.60;99.90;;;;;;5093577;28;20032;-76
2023/04/21 00:05:41;;;;;;;1.65;1.55;;;9.60;99.90;;;;;;5075139;28;20036;-77
2023/04/21 00:08:07;;;;;;;1.65;1.55;;;9.60;99.90;;;;;;5093524;28;20036;-76
2023/04/21 00:10:33;;;;;;;1.50;1.40;;;9.60;99.90;;;;;;5092135;28;20115;-76
2023/04/21 00:12:59;;;;;;;1.50;1.40;;;9.60;99.90;;;;;;5092228;28;20125;-76
2023/04/21 00:15:25;;;;;;;1.40;1.30;;;9.60;99.90;;;;;;5092199;28;20040;-76
2023/04/21 00:17:50;;;;;;;1.33;1.27;;;9.60;99.90;;;;;;5092126;28;20058;-76
2023/04/21 00:20:16;;;;;;;1.42;1.33;;;9.60;99.90;;;;;;5092720;28;20032;-76
2023/04/21 00:22:42;;;;;;;1.40;1.30;;;9.50;99.90;;;;;;5129873;27;20522;-76
2023/04/21 00:25:08;;;;;;;1.40;1.30;;;9.60;99.90;;;;;;5097313;28;20036;-76
2023/04/21 00:27:33;;;;;;;1.20;1.20;;;9.50;99.90;;;;;;5095706;28;20391;-76
2023/04/21 00:29:59;;;;;;;1.40;1.30;;;9.50;99.90;;;;;;5095904;28;20036;-76
2023/04/21 00:32:25;;;;;;;1.35;1.25;;;9.50;99.90;;;;;;5096932;28;20044;-76
2023/04/21 00:34:50;;;;;;;1.40;1.30;;;9.50;99.90;;;;;;5078745;28;20050;-76
2023/04/21 00:37:16;;;;;;;1.30;1.20;;;9.50;99.90;;;;;;5129679;27;20092;-76
2023/04/21 00:39:42;;;;;;;1.45;1.35;;;9.30;99.90;;;;;;5095271;28;20488;-76
2023/04/21 00:42:07;;;;;;;1.40;1.30;;;9.30;99.90;;;;;;5095454;28;20068;-76
2023/04/21 00:44:33;;;;;;;1.40;1.30;;;9.30;99.90;;;;;;5095480;28;20115;-76
2023/04/21 00:46:58;;;;;;;1.38;1.17;;;9.20;99.90;;;;;;5095619;28;20441;-76
2023/04/21 00:49:24;;;;;;;1.30;1.20;;;9.10;99.90;;;;;;5095274;28;20040;-76
2023/04/21 00:51:51;;;;;;;1.23;1.20;;;9.00;99.90;;;;;;5096539;28;20044;-77
2023/04/21 00:54:18;;;;;;;1.30;1.20;;;9.00;99.90;;;;;;5095319;28;20123;-77
2023/04/21 00:56:44;;;;;;;1.38;1.27;;;9.00;99.90;;;;;;5095168;28;20044;-76
2023/04/21 00:59:09;;;;;;;1.40;1.30;;;9.00;99.90;;;;;;5096671;28;20044;-76
2023/04/21 01:01:36;;;;;;;1.30;1.20;;;9.00;99.90;;;;;;5095089;28;20032;-76
2023/04/21 01:04:03;;;;;;;1.10;1.10;;;9.00;99.90;;;;;;5096623;28;20032;-76
2023/04/21 01:06:31;;;;;;;1.20;1.10;;;9.00;99.90;;;;;;5095081;28;20086;-76
2023/04/21 01:08:57;;;;;;;1.20;1.10;;;9.00;99.90;;;;;;5095262;28;20048;-76
2023/04/21 01:11:23;;;;;;;1.30;1.20;;;8.90;99.90;;;;;;5094971;28;20119;-76
2023/04/21 01:13:52;;;;;;;1.27;1.27;;;8.90;99.90;;;;;;5096436;28;20064;-76
2023/04/21 01:16:18;;;;;;;1.30;1.20;;;8.90;99.90;;;;;;5096454;28;20047;-76
2023/04/21 01:18:47;;;;;;;1.33;1.23;;;8.90;99.90;;;;;;5094736;28;20040;-76
2023/04/21 01:21:13;;;;;;;1.50;1.40;;;8.90;99.90;;;;;;5096268;28;20146;-76
2023/04/21 01:23:42;;;;;;;1.05;1.05;;;8.90;99.90;;;;;;5095940;28;20071;-76
2023/04/21 01:26:08;;;;;;;1.20;1.20;;;8.90;99.90;;;;;;5094673;28;20042;-76
2023/04/21 01:28:35;;;;;;;1.40;1.30;;;9.00;99.90;;;;;;5094877;28;20040;-76
2023/04/21 01:31:00;;;;;;;1.83;1.20;;;9.00;99.90;;;;;;5094520;28;20058;-76
2023/04/21 01:33:26;;;;;;;0.98;0.90;;;8.90;99.90;;;;;;5093862;28;20039;-76
2023/04/21 01:35:52;;;;;;;1.30;1.20;;;8.90;99.90;;;;;;5096092;28;20085;-76
2023/04/21 01:38:18;;;;;;;1.10;1.10;;;8.90;99.90;;;;;;5094201;28;20412;-77
2023/04/21 01:40:47;;;;;;;1.20;1.20;;;8.80;99.90;;;;;;5095945;28;20047;-75
2023/04/21 01:43:14;;;;;;;1.23;1.20;;;8.90;99.90;;;;;;5094331;28;20047;-75
2023/04/21 01:45:40;;;;;;;1.30;1.20;;;8.80;99.90;;;;;;5094456;28;20040;-75
2023/04/21 01:48:06;;;;;;;1.30;1.20;;;8.80;99.90;;;;;;5095772;28;20495;-76
2023/04/21 01:50:31;;;;;;;1.40;1.30;;;8.80;99.90;;;;;;5094113;28;20040;-75
2023/04/21 01:52:57;;;;;;;1.15;1.15;;;8.80;99.90;;;;;;5094116;28;20090;-75
2023/04/21 01:55:23;;;;;;;1.40;1.30;;;8.80;99.90;;;;;;5077300;28;20090;-76
2023/04/21 01:57:48;;;;;;;1.13;1.13;;;8.80;99.90;;;;;;5095339;28;20035;-76
2023/04/21 02:00:15;;;;;;;1.10;1.10;;;8.80;99.90;;;;;;5093989;28;20032;-76
2023/04/21 02:02:40;;;;;;;1.40;1.30;;;8.70;99.90;;;;;;5095491;28;20103;-76
2023/04/21 02:05:06;;;;;;;1.13;1.10;;;8.70;99.90;;;;;;5094187;28;20124;-76
2023/04/21 02:07:32;;;;;;;1.52;1.20;;;8.70;99.90;;;;;;5076969;28;20056;-76
2023/04/21 02:09:58;;;;;;;1.17;1.10;;;8.60;99.90;;;;;;5077018;28;20040;-76
2023/04/21 02:12:23;;;;;;;1.38;1.30;;;8.60;99.90;;;;;;5095370;28;20111;-76
2023/04/21 02:14:49;;;;;;;1.50;1.40;;;8.60;99.90;;;;;;5094017;28;20489;-76
2023/04/21 02:17:16;;;;;;;1.30;1.20;;;8.60;99.90;;;;;;5093678;28;20119;-76
2023/04/21 02:19:41;;;;;;;1.10;1.10;;;8.60;99.90;;;;;;5093573;28;20048;-76
2023/04/21 02:22:09;;;;;;;1.30;1.20;;;8.60;99.90;;;;;;5093563;28;20507;-76
2023/04/21 02:24:35;;;;;;;1.40;1.30;;;8.60;99.90;;;;;;5095063;28;20074;-76
2023/04/21 02:27:00;;;;;;;1.25;1.20;;;8.60;99.90;;;;;;5094991;28;20121;-76
2023/04/21 02:29:26;;;;;;;1.30;1.20;;;8.60;99.90;;;;;;5093375;28;20488;-75
2023/04/21 02:31:52;;;;;;;1.50;1.40;;;8.60;99.90;;;;;;5127668;27;20052;-75
2023/04/21 02:34:18;;;;;;;1.20;1.20;;;8.50;99.90;;;;;;5094826;28;20470;-75
2023/04/21 02:36:43;;;;;;;1.15;1.15;;;8.50;99.90;;;;;;5094438;28;20369;-76
2023/04/21 02:39:09;;;;;;;1.52;1.42;;;8.50;99.90;;;;;;5094226;28;20052;-76
2023/04/21 02:41:34;;;;;;;1.20;1.10;;;8.50;99.90;;;;;;5093200;28;20044;-76
2023/04/21 02:44:00;;;;;;;1.20;1.10;;;8.50;99.90;;;;;;5075262;28;20036;-75
2023/04/21 02:46:26;;;;;;;1.40;1.30;;;8.50;99.90;;;;;;5076500;28;20093;-75
2023/04/21 02:48:51;;;;;;;1.17;1.10;;;8.50;99.90;;;;;;5093333;28;20036;-76
2023/04/21 02:51:17;;;;;;;1.48;1.38;;;8.40;99.90;;;;;;5094574;28;20044;-75
2023/04/21 02:53:42;;;;;;;1.50;1.40;;;8.50;99.90;;;;;;5094456;28;20123;-75
2023/04/21 02:56:09;;;;;;;1.25;1.25;;;8.50;99.90;;;;;;5092881;28;20071;-75
2023/04/21 02:58:35;;;;;;;1.40;1.20;;;8.40;99.90;;;;;;5092796;28;20044;-75
2023/04/21 03:01:02;;;;;;;1.05;1.02;;;8.40;99.90;;;;;;5092845;28;20082;-76
2023/04/21 03:03:28;;;;;;;1.25;1.23;;;8.40;99.90;;;;;;5094345;28;20102;-75
2023/04/21 03:06:01;;;;;;;1.30;1.20;;;8.30;99.90;;;;;;5094351;28;20480;-75
2023/04/21 03:08:27;;;;;;;1.42;1.33;;;8.40;99.90;;;;;;5092729;28;20052;-76
2023/04/21 03:10:53;;;;;;;1.10;1.10;;;8.40;99.90;;;;;;5093883;28;20093;-76
2023/04/21 03:13:22;;;;;;;1.20;1.10;;;8.40;99.90;;;;;;5092632;28;20072;-75
2023/04/21 03:15:47;;;;;;;1.60;1.50;;;8.50;99.90;;;;;;5092574;28;20484;-75
2023/04/21 03:18:13;;;;;;;1.40;1.30;;;8.40;99.90;;;;;;5075641;28;20043;-75
2023/04/21 03:20:39;;;;;;;1.50;1.40;;;8.40;99.90;;;;;;5092800;28;20391;-76
2023/04/21 03:23:05;;;;;;;1.70;1.40;;;8.30;99.90;;;;;;5092440;28;20044;-75
2023/04/21 03:25:30;;;;;;;1.52;1.42;;;8.40;99.90;;;;;;5092805;28;20036;-75
2023/04/21 03:27:56;;;;;;;1.67;1.42;;;8.40;99.90;;;;;;5092747;28;20120;-75
2023/04/21 03:30:24;;;;;;;1.48;1.30;;;8.50;99.90;;;;;;5092366;28;20062;-75
2023/04/21 03:32:50;;;;;;;1.42;1.38;;;8.50;99.90;;;;;;5092636;28;20047;-75
2023/04/21 03:35:15;;;;;;;1.50;1.40;;;8.50;99.90;;;;;;5093536;28;20119;-76
2023/04/21 03:37:41;;;;;;;1.50;1.40;;;8.50;99.90;;;;;;5092434;28;20093;-75
2023/04/21 03:40:07;;;;;;;1.42;1.33;;;8.40;99.90;;;;;;5093264;28;20084;-75
2023/04/21 03:42:34;;;;;;;1.40;1.30;;;8.40;99.90;;;;;;5093688;28;20043;-76
2023/04/21 03:45:07;;;;;;;1.50;1.40;;;8.30;99.90;;;;;;5092155;28;20545;-75
2023/04/21 03:47:33;;;;;;;1.60;1.50;;;8.30;99.90;;;;;;5075255;28;20035;-75
2023/04/21 03:49:59;;;;;;;1.85;1.75;;;8.30;99.90;;;;;;5092448;28;20392;-75
2023/04/21 03:52:24;;;;;;;1.50;1.40;;;8.20;99.90;;;;;;5092149;28;20151;-75
2023/04/21 03:54:50;;;;;;;1.67;1.58;;;8.10;99.90;;;;;;5093625;28;20044;-76
2023/04/21 03:57:16;;;;;;;1.60;1.50;;;8.20;99.90;;;;;;5096520;28;20072;-76
2023/04/21 03:59:42;;;;;;;1.60;1.50;;;8.10;99.90;;;;;;5079603;28;20124;-75
2023/04/21 04:02:08;;;;;;;1.60;1.50;;;8.20;99.90;;;;;;5079387;28;20529;-75
2023/04/21 04:04:35;;;;;;;1.50;1.40;;;8.10;99.90;;;;;;5097784;28;20040;-76
2023/04/21 04:07:01;;;;;;;1.70;1.60;;;8.10;99.90;;;;;;5096143;28;20040;-76
2023/04/21 04:09:26;;;;;;;1.65;1.55;;;8.10;99.90;;;;;;5096141;28;20047;-76
2023/04/21 04:11:52;;;;;;;1.70;1.60;;;8.10;99.90;;;;;;5096315;28;20040;-75
2023/04/21 04:14:18;;;;;;;1.60;1.50;;;8.10;99.90;;;;;;5096256;28;20039;-76
2023/04/21 04:16:43;;;;;;;1.70;1.60;;;8.00;99.90;;;;;;5130153;27;20048;-76
2023/04/21 04:19:09;;;;;;;1.63;1.52;;;8.10;99.90;;;;;;5130040;27;20044;-76
2023/04/21 04:21:35;;;;;;;1.60;1.50;;;8.10;99.90;;;;;;5097503;28;20165;-76
2023/04/21 04:24:02;;;;;;;1.52;1.42;;;8.00;99.90;;;;;;5095735;28;20500;-76
2023/04/21 04:26:28;;;;;;;1.42;1.33;;;8.00;99.90;;;;;;5078845;28;20032;-76
2023/04/21 04:28:55;;;;;;;1.50;1.40;;;8.00;99.90;;;;;;5079105;28;20044;-75
2023/04/21 04:31:24;;;;;;;1.70;1.60;;;8.00;99.90;;;;;;5097147;28;20044;-75
2023/04/21 04:33:50;;;;;;;1.70;1.60;;;8.00;99.90;;;;;;5078720;28;20036;-76
2023/04/21 04:36:15;;;;;;;1.75;1.65;;;8.00;99.90;;;;;;5097102;28;20032;-75
2023/04/21 04:38:42;;;;;;;2.05;1.85;;;8.00;99.90;;;;;;5078433;28;20489;-75
2023/04/21 04:41:07;;;;;;;1.73;1.63;;;8.00;99.90;;;;;;5097077;28;20051;-75
2023/04/21 04:43:35;;;;;;;1.60;1.50;;;8.00;99.90;;;;;;5095900;28;20032;-76
2023/04/21 04:46:04;;;;;;;1.95;1.70;;;8.00;99.90;;;;;;5097331;28;20488;-76
2023/04/21 04:48:30;;;;;;;1.65;1.55;;;8.00;99.90;;;;;;5095870;28;20036;-75
2023/04/21 04:50:56;;;;;;;1.60;1.50;;;8.00;99.90;;;;;;5095726;28;20036;-76
2023/04/21 04:53:22;;;;;;;1.70;1.60;;;8.00;99.90;;;;;;5095363;28;20036;-75
2023/04/21 04:55:47;;;;;;;1.48;1.38;;;8.00;99.90;;;;;;5078766;28;20340;-75
2023/04/21 04:58:13;;;;;;;1.70;1.60;;;8.10;99.90;;;;;;5096762;28;20036;-76
2023/04/21 05:00:38;;;;;;;1.55;1.45;;;8.10;99.90;;;;;;5096738;28;20082;-76
2023/04/21 05:03:04;;;;;;;1.80;1.70;;;8.10;99.90;;;;;;5078343;28;20093;-76
2023/04/21 05:05:30;;;;;;;1.77;1.65;;;8.20;99.90;;;;;;5096741;28;20078;-75
2023/04/21 05:07:56;;;;;;;1.80;1.70;;;8.20;99.90;;;;;;5094328;28;20064;-75
2023/04/21 05:10:22;;;;;;;1.60;1.50;;;8.30;99.90;;;;;;5096607;28;20039;-75
2023/04/21 05:12:48;;;;;;;1.70;1.60;;;8.20;99.90;;;;;;5096557;28;20081;-76
2023/04/21 05:15:13;;;;;;;1.70;1.60;;;8.20;99.90;;;;;;5078041;28;20054;-76
2023/04/21 05:17:39;;;;;;;1.70;1.60;;;8.30;99.90;;;;;;5095206;28;20055;-76
2023/04/21 05:20:06;;;;;;;1.60;1.50;;;8.30;99.90;;;;;;5094897;28;20032;-76
2023/04/21 05:22:35;;;;;;;1.80;1.70;;;8.30;99.90;;;;;;5078297;28;20044;-76
2023/04/21 05:25:01;;;;;;;1.77;1.67;;;8.30;99.90;;;;;;5096368;28;20055;-76
2023/04/21 05:27:27;;;;;;;1.98;1.88;;;8.40;99.90;;;;;;5095040;28;20028;-76
2023/04/21 05:29:54;;;;;;;1.70;1.60;;;8.40;99.90;;;;;;5094754;28;20047;-76
2023/04/21 05:32:19;;;;;;;1.50;1.45;;;8.40;99.90;;;;;;5077785;28;20498;-76
2023/04/21 05:34:45;;;;;;;1.55;1.45;;;8.50;99.90;;;;;;5077593;28;20036;-76
2023/04/21 05:37:11;;;;;;;1.58;1.48;;;8.40;99.90;;;;;;5094563;28;20040;-76
2023/04/21 05:39:37;;;;;;;1.80;1.70;;;8.50;99.90;;;;;;5095507;28;20060;-76
2023/04/21 05:42:03;;;;;;;1.98;1.77;;;8.50;99.90;;;;;;5096008;28;20133;-76
2023/04/21 05:44:28;;;;;;;1.70;1.60;;;8.60;99.90;;;;;;5096361;28;20464;-76
2023/04/21 05:46:54;;;;;;;1.50;1.40;;;8.60;99.90;;;;;;5094278;28;20039;-76
2023/04/21 05:49:20;;;;;;;1.60;1.50;;;8.60;99.90;;;;;;5094497;28;20029;-76
2023/04/21 05:51:45;;;;;;;1.95;1.85;;;8.70;99.90;;;;;;5095732;28;20536;-76
2023/04/21 05:54:11;;;;;;;1.80;1.60;;;8.80;99.90;;;;;;5094077;28;20039;-75
2023/04/21 05:56:36;;;;;;;1.60;1.50;;;8.80;99.90;;;;;;5095576;28;20373;-75
2023/04/21 05:59:02;;;;;;;2.05;1.50;;;8.90;99.90;;;;;;5095410;28;20047;-76
2023/04/21 06:01:28;;;;;;;1.60;1.50;;;8.90;99.90;;;;;;5093943;28;20485;-75
2023/04/21 06:03:54;;;;;;;1.60;1.50;;;9.00;99.90;;;;;;5093925;28;20051;-76
2023/04/21 06:06:19;;;;;;;1.60;1.50;;;9.10;99.90;;;;;;5095124;28;20039;-75
2023/04/21 06:08:45;;;;;;;1.60;1.50;;;9.10;99.90;;;;;;5093856;28;20131;-76
2023/04/21 06:11:11;;;;;;;1.60;1.50;;;9.20;99.90;;;;;;5093800;28;20034;-75
2023/04/21 06:13:36;;;;;;;1.58;1.48;;;9.20;99.90;;;;;;5093819;28;20117;-75
2023/04/21 06:16:02;;;;;;;1.60;1.50;;;9.20;99.90;;;;;;5095349;28;20067;-76
2023/04/21 06:18:28;;;;;;;1.50;1.40;;;9.30;99.90;;;;;;5093414;28;20599;-76
2023/04/21 06:20:54;;;;;;;1.50;1.40;;;9.30;99.90;;;;;;5093895;28;20123;-75
2023/04/21 06:23:20;;;;;;;1.50;1.40;;;9.40;99.90;;;;;;5093540;28;20040;-75
2023/04/21 06:25:46;;;;;;;1.40;1.30;;;9.50;99.90;;;;;;5076528;28;20040;-75
2023/04/21 06:28:12;;;;;;;1.30;1.20;;;9.50;99.90;;;;;;5095004;28;20032;-76
2023/04/21 06:30:38;;;;;;;1.85;1.60;;;9.60;99.90;;;;;;5093610;28;20113;-75
2023/04/21 06:33:05;;;;;;;1.40;1.30;;;9.70;99.90;;;;;;5093660;28;20089;-75
2023/04/21 06:35:31;;;;;;;1.77;1.35;;;9.70;99.90;;;;;;5094779;28;20032;-76
2023/04/21 06:37:56;;;;;;;1.35;1.25;;;9.80;99.90;;;;;;5094819;28;20081;-76
2023/04/21 06:40:22;;;;;;;1.33;1.23;;;9.90;99.90;;;;;;5093003;28;20108;-76
2023/04/21 06:42:48;;;;;;;1.40;1.30;;;9.90;99.90;;;;;;5093492;28;20052;-76
2023/04/21 06:45:13;;;;;;;2.13;1.40;;;10.00;99.90;;;;;;5093392;28;20088;-76
2023/04/21 06:47:39;;;;;;;1.98;1.50;;;10.00;99.90;;;;;;5093135;28;20169;-76
2023/04/21 06:50:05;;;;;;;1.50;1.40;;;10.10;99.90;;;;;;5094604;28;20130;-76
2023/04/21 06:52:30;;;;;;;1.50;1.30;;;10.20;99.90;;;;;;5093049;28;20044;-75
2023/04/21 06:54:56;;;;;;;1.30;1.20;;;10.20;99.90;;;;;;5127120;27;20055;-76
2023/04/21 06:57:22;;;;;;;2.55;1.42;;;10.30;99.90;;;;;;5076332;28;20043;-76
2023/04/21 06:59:47;;;;;;;1.40;1.30;;;10.30;99.90;;;;;;5092846;28;20510;-76
2023/04/21 07:02:13;;;;;;;1.75;1.40;;;10.40;99.90;;;;;;5092856;28;20047;-76
2023/04/21 07:04:39;;;;;;;1.90;1.20;;;10.40;99.90;;;;;;5092777;28;20415;-76
2023/04/21 07:07:04;;;;;;;1.40;1.20;;;10.60;99.90;;;;;;5092990;28;20093;-76
2023/04/21 07:09:32;;;;;;;1.50;1.30;;;10.60;99.90;;;;;;5092704;28;20043;-75
2023/04/21 07:11:58;;;;;;;2.22;1.30;;;10.60;99.90;;;;;;5092987;28;20082;-75
2023/04/21 07:14:24;;;;;;;1.67;1.20;;;10.60;99.90;;;;;;5126766;27;20122;-76
2023/04/21 07:16:50;;;;;;;1.35;1.25;;;10.70;99.90;;;;;;5093808;28;20079;-76
2023/04/21 07:19:16;;;;;;;1.90;1.27;;;10.80;99.90;;;;;;5094271;28;20054;-76
2023/04/21 07:21:41;;;;;;;1.30;1.20;;;10.90;99.90;;;;;;5092526;28;20048;-76
2023/04/21 07:24:07;;;;;;;1.45;1.33;;;11.00;99.90;;;;;;5094006;28;20067;-76
2023/04/21 07:26:33;;;;;;;1.35;1.25;;;11.10;99.90;;;;;;5092473;28;20118;-76
2023/04/21 07:28:59;;;;;;;1.40;1.30;;;11.20;99.90;;;;;;5126372;27;20047;-75
2023/04/21 07:31:25;;;;;;;1.50;1.40;;;11.40;99.90;;;;;;5093344;28;20051;-76
2023/04/21 07:33:50;;;;;;;1.33;1.10;;;11.50;99.90;;;;;;5093882;28;20036;-76
2023/04/21 07:36:16;;;;;;;2.03;1.38;;;11.60;99.90;;;;;;5093853;28;20040;-75
2023/04/21 07:38:42;;;;;;;1.40;1.30;;;11.70;99.90;;;;;;5093540;28;20055;-76
2023/04/21 07:41:10;;;;;;;1.63;1.30;;;11.70;99.90;;;;;;5075422;28;20123;-76
2023/04/21 07:43:35;;;;;;;1.90;1.30;;;11.80;99.90;;;;;;5092585;28;20067;-76
2023/04/21 07:46:01;;;;;;;1.42;1.30;;;11.90;99.90;;;;;;5093847;28;20101;-76
2023/04/21 07:48:27;;;;;;;1.25;1.15;;;12.00;99.90;;;;;;5092458;28;20071;-76
2023/04/21 07:50:52;;;;;;;1.27;1.17;;;12.00;99.90;;;;;;5075444;28;20403;-76
2023/04/21 07:53:18;;;;;;;1.20;1.10;;;12.10;99.90;;;;;;5093624;28;20079;-76
2023/04/21 07:55:43;;;;;;;1.27;1.17;;;12.10;99.90;;;;;;5093117;28;20044;-76
2023/04/21 07:58:09;;;;;;;1.77;1.40;;;12.20;99.90;;;;;;5092034;28;20039;-76
2023/04/21 08:00:35;;;;;;;1.25;1.15;;;12.30;99.90;;;;;;5126107;28;20040;-75
2023/04/21 08:03:01;;;;;;;1.92;1.42;;;12.30;99.90;;;;;;5092404;28;20032;-75
2023/04/21 08:05:27;;;;;;;2.05;1.20;;;12.40;99.90;;;;;;5126316;28;20044;-75
2023/04/21 08:07:53;;;;;;;1.23;1.13;;;12.50;99.90;;;;;;5093514;28;20043;-76
2023/04/21 08:10:19;;;;;;;1.58;1.20;;;12.60;99.90;;;;;;5092220;28;20044;-76
2023/04/21 08:12:44;;;;;;;1.70;1.20;;;12.60;99.90;;;;;;5092202;28;20504;-76
2023/04/21 08:15:11;;;;;;;1.30;1.20;;;12.70;99.90;;;;;;5091936;28;20044;-76
2023/04/21 08:17:37;;;;;;;0.95;0.95;;;12.70;99.90;;;;;;5093131;28;20088;-75
2023/04/21 08:20:04;;;;;;;1.40;1.30;;;12.70;99.90;;;;;;5093382;28;20048;-75
2023/04/21 08:22:30;;;;;;;1.35;1.23;;;12.80;99.90;;;;;;5075023;28;20119;-76
2023/04/21 08:24:55;;;;;;;2.40;1.20;;;12.90;99.90;;;;;;5092108;28;20437;-76
2023/04/21 08:27:21;;;;;;;2.30;1.30;;;12.90;99.90;;;;;;5091757;28;20115;-76
2023/04/21 08:29:49;;;;;;;1.35;1.17;;;13.00;99.90;;;;;;5093015;28;20133;-76
2023/04/21 08:32:15;;;;;;;1.98;1.38;;;13.10;99.90;;;;;;5092015;28;20052;-76
2023/04/21 08:34:41;;;;;;;1.67;1.58;;;13.20;99.90;;;;;;5091785;28;20156;-76
2023/04/21 08:37:07;;;;;;;1.30;1.20;;;13.30;99.90;;;;;;5074961;28;20138;-77
2023/04/21 08:39:32;;;;;;;1.15;1.05;;;13.30;99.90;;;;;;5092841;28;20087;-76
2023/04/21 08:42:00;;;;;;;1.38;1.10;;;13.30;99.90;;;;;;5094425;28;20372;-76
2023/04/21 08:44:26;;;;;;;1.60;1.17;;;13.50;99.90;;;;;;5095506;28;20046;-76
2023/04/21 08:46:55;;;;;;;1.20;1.10;;;13.50;99.90;;;;;;5095460;28;20119;-76
2023/04/21 08:49:23;;;;;;;1.02;0.93;;;13.60;99.90;;;;;;5095742;28;20040;-76
2023/04/21 08:51:48;;;;;;;1.63;1.10;;;13.70;99.90;;;;;;5095596;28;20046;-76
2023/04/21 08:54:14;;;;;;;1.58;1.20;;;13.80;99.90;;;;;;5096878;28;20123;-76
2023/04/21 08:56:40;;;;;;;1.42;1.17;;;13.90;99.90;;;;;;5078407;28;20039;-76
2023/04/21 08:59:06;;;;;;;1.40;1.20;;;14.00;99.90;;;;;;5096691;28;20048;-76
2023/04/21 09:01:31;;;;;;;1.30;1.10;;;14.10;99.90;;;;;;5096361;28;20040;-77
2023/04/21 09:04:16;;;;;;;1.48;1.10;;;14.20;99.90;;;;;;5096727;28;20090;-77
2023/04/21 09:06:42;;;;;;;1.25;1.15;;;14.30;99.90;;;;;;5129570;27;20559;-76
2023/04/21 09:09:08;;;;;;;1.02;0.98;;;14.40;99.90;;;;;;5095037;28;20032;-77
2023/04/21 09:11:33;;;;;;;1.15;1.00;;;14.50;99.90;;;;;;5096475;28;20043;-76
2023/04/21 09:13:59;;;;;;;1.80;1.02;;;14.60;99.90;;;;;;5094914;28;20345;-76
2023/04/21 09:16:30;;;;;;;1.35;1.10;;;14.70;99.90;;;;;;5096442;28;20032;-76
2023/04/21 09:18:55;;;;;;;1.95;1.00;;;14.90;99.90;;;;;;5094744;28;20036;-76
2023/04/21 09:21:27;;;;;;;1.05;0.98;;;15.00;99.90;;;;;;5094829;28;20089;-76
2023/04/21 09:23:54;;;;;;;1.70;1.20;;;15.10;99.90;;;;;;5094825;28;20119;-77
2023/04/21 09:26:23;;;;;;;1.67;1.05;;;15.10;99.90;;;;;;5094925;28;20392;-76
2023/04/21 09:28:51;;;;;;;2.05;0.98;;;15.20;99.90;;;;;;5094648;28;20515;-76
2023/04/21 09:31:27;;;;;;;2.40;1.10;;;15.30;99.90;;;;;;5095321;28;20052;-76
2023/04/21 09:33:55;;;;;;;1.95;1.10;;;15.30;99.90;;;;;;5094873;28;20051;-76
2023/04/21 09:36:26;;;;;;;1.02;0.80;;;15.30;99.90;;;;;;5078742;28;20127;-76
2023/04/21 09:39:02;;;;;;;1.38;1.00;;;15.30;99.90;;;;;;5095550;28;20094;-76
2023/04/21 09:41:29;;;;;;;1.65;1.23;;;15.30;99.90;;;;;;5094743;28;20044;-76
2023/04/21 09:43:54;;;;;;;1.23;1.05;;;15.40;99.90;;;;;;5077519;28;20111;-76
2023/04/21 09:46:21;;;;;;;1.15;1.05;;;15.50;99.90;;;;;;5094241;28;20086;-76
2023/04/21 09:48:47;;;;;;;1.45;1.00;;;15.60;99.90;;;;;;5077674;28;20055;-76
2023/04/21 09:51:15;;;;;;;1.20;1.10;;;15.60;99.90;;;;;;5094279;28;20553;-76
2023/04/21 09:53:41;;;;;;;1.33;1.20;;;15.70;99.90;;;;;;5093985;28;20392;-76
2023/04/21 09:56:12;;;;;;;1.27;1.10;;;15.90;99.90;;;;;;5095662;28;20055;-76
2023/04/21 09:58:46;;;;;;;1.20;1.02;;;16.10;99.90;;;;;;5094049;28;20051;-76
2023/04/21 10:01:13;;;;;;;1.35;1.02;;;16.30;99.90;;;;;;5095333;28;20519;-76
2023/04/21 10:03:40;;;;;;;1.10;0.93;;;16.30;99.90;;;;;;5093906;28;20040;-76
2023/04/21 10:06:07;;;;;;;1.17;1.00;;;16.30;99.90;;;;;;5093910;28;20127;-76
2023/04/21 10:08:34;;;;;;;0.90;0.90;;;16.40;99.90;;;;;;5094130;28;20036;-76
2023/04/21 10:11:02;;;;;;;2.17;1.15;;;16.60;99.90;;;;;;5093869;28;20040;-77
2023/04/21 10:13:27;;;;;;;1.13;1.00;;;16.70;99.90;;;;;;5095393;28;20044;-77
2023/04/21 10:16:09;;;;;;;1.02;0.93;;;16.80;99.90;;;;;;5095332;28;20036;-76
2023/04/21 10:18:42;;;;;;;1.17;1.00;;;16.90;99.90;;;;;;5093715;28;20036;-76
2023/04/21 10:21:09;;;;;;;1.08;0.98;;;17.00;99.90;;;;;;5095245;28;20388;-76
2023/04/21 10:23:41;;;;;;;1.10;1.00;;;17.00;99.90;;;;;;5093593;28;20127;-76
2023/04/21 10:26:31;;;;;;;1.10;1.00;;;17.20;99.90;;;;;;5076696;28;20051;-76
2023/04/21 10:29:02;;;;;;;1.15;0.98;;;17.20;99.90;;;;;;5093175;28;20083;-76
2023/04/21 10:31:35;;;;;;;2.25;1.10;;;17.20;99.90;;;;;;5094974;28;20050;-76
2023/04/21 10:34:12;;;;;;;1.35;1.10;;;17.20;99.90;;;;;;5094944;28;20040;-76
2023/04/21 10:36:44;;;;;;;1.92;1.20;;;17.20;99.90;;;;;;5094589;28;20044;-76
2023/04/21 10:39:11;;;;;;;1.20;1.10;;;17.20;99.90;;;;;;5094616;28;20048;-76
2023/04/21 10:41:37;;;;;;;0.80;0.80;;;17.30;99.90;;;;;;5076327;28;20117;-76
2023/04/21 10:44:10;;;;;;;1.15;1.02;;;17.40;99.90;;;;;;5094773;28;20086;-76
2023/04/21 10:46:40;;;;;;;1.00;0.90;;;17.50;99.90;;;;;;5094608;28;20043;-76
2023/04/21 10:49:30;;;;;;;1.05;0.95;;;17.60;99.90;;;;;;5093083;28;20086;-76
2023/04/21 10:51:58;;;;;;;;;;;17.70;99.90;;;;;;5093343;28;20104;-76
2023/04/21 10:54:24;;;;;;;0.77;0.77;;;17.70;99.90;;;;;;5127200;27;19916;-76
2023/04/21 10:56:55;;;;;;;1.30;1.08;;;17.80;99.90;;;;;;5093032;28;20048;-76
2023/04/21 10:59:21;;;;;;;0.88;0.82;;;18.00;99.90;;;;;;5093095;28;20044;-77
2023/04/21 11:01:48;;;;;;;1.10;1.00;;;18.10;99.90;;;;;;5094529;28;20044;-76
2023/04/21 11:04:19;;;;;;;0.82;0.82;;;18.20;99.90;;;;;;5092621;28;20051;-76
2023/04/21 11:07:15;;;;;;;0.95;0.82;;;18.30;96.90;;;;;;5092275;28;20058;-76
2023/04/21 11:09:42;;;;;;;1.42;0.80;;;18.50;97.50;;;;;;5089366;28;20408;-76
2023/04/21 11:12:12;;;;;;;1.42;0.80;;;18.60;95.30;;;;;;5076019;28;20365;-76
2023/04/21 11:14:42;;;;;;;1.00;0.90;;;18.70;96.50;;;;;;5094412;28;20044;-76
2023/04/21 11:17:13;;;;;;;1.02;0.80;;;18.80;95.40;;;;;;5092937;28;20434;-76
2023/04/21 11:19:39;;;;;;;1.73;0.80;;;18.80;93.70;;;;;;5094006;28;20059;-76
2023/04/21 11:22:05;;;;;;;1.08;0.70;;;18.90;94.40;;;;;;5093727;28;20484;-77
2023/04/21 11:24:31;;;;;;;0.80;0.80;;;19.00;93.50;;;;;;5092776;28;20085;-76
2023/04/21 11:26:57;;;;;;;1.05;0.80;;;19.00;91.90;;;;;;5092870;28;20365;-76
2023/04/21 11:29:23;;;;;;;1.05;0.80;;;18.90;91.50;;;;;;5092663;28;20086;-77
2023/04/21 11:31:49;;;;;;;0.73;0.70;;;18.80;92.40;;;;;;5126689;27;20490;-77
2023/04/21 11:34:19;;;;;;;1.83;0.70;;;18.70;91.80;;;;;;5092645;28;20047;-77
2023/04/21 11:36:46;;;;;;;0.85;0.80;;;18.60;91.80;;;;;;5094129;28;20089;-77
2023/04/21 11:39:14;;;;;;;1.00;0.70;;;18.70;91.40;;;;;;5093520;28;20143;-77
2023/04/21 11:41:45;;;;;;;1.23;0.70;;;18.80;90.90;;;;;;5092267;28;20040;-77
2023/04/21 11:44:12;;;;;;;0.93;0.70;;;18.80;91.00;;;;;;5093815;28;20447;-76
2023/04/21 11:46:45;;;;;;;0.80;0.65;;;18.80;91.10;;;;;;5092667;28;20085;-77
2023/04/21 11:49:12;;;;;;;0.77;0.70;;;18.80;91.70;;;;;;5093807;28;20059;-77
2023/04/21 11:51:42;;;;;;;0.93;0.70;;;18.80;90.50;;;;;;5092427;28;20055;-76
2023/04/21 11:54:12;;;;;;;1.20;0.68;;;18.90;90.70;;;;;;5092382;28;20048;-77
2023/04/21 11:56:44;;;;;;;1.05;0.60;;;19.10;90.70;;;;;;5094158;28;20044;-76
2023/04/21 11:59:22;;;;;;;0.60;0.60;;;19.10;90.50;;;;;;5092026;28;20040;-77
2023/04/21 12:01:51;;;;;;;0.90;0.70;;;19.30;90.20;;;;;;5092059;28;20044;-76
2023/04/21 12:04:24;;;;;;;1.08;0.70;;;19.50;88.70;;;;;;5093260;28;20044;-76
2023/04/21 12:07:00;;;;;;;0.73;0.73;;;19.70;85.20;;;;;;5093493;28;20042;-76
2023/04/21 12:09:27;;;;;;;1.08;0.60;;;19.90;84.30;;;;;;5093493;28;20361;-76
2023/04/21 12:11:56;;;;;;;1.25;0.60;;;20.00;83.20;;;;;;5126180;28;20052;-76
2023/04/21 12:14:23;;;;;;;1.65;0.77;;;19.90;83.70;;;;;;5092216;28;20386;-76
2023/04/21 12:16:56;;;;;;;1.10;0.70;;;19.90;83.60;;;;;;5093508;28;20050;-76
2023/04/21 12:19:38;;;;;;;1.20;0.70;;;19.90;85.70;;;;;;5079088;28;20127;-77
2023/04/21 12:22:08;;;;;;;0.98;0.60;;;20.00;82.20;;;;;;5097574;28;20036;-77
2023/04/21 12:24:34;;;;;;;0.68;0.68;;;20.10;82.20;;;;;;5097410;28;20060;-77
2023/04/21 12:27:01;;;;;;;1.05;0.80;;;20.10;82.10;;;;;;5097469;28;20081;-77
2023/04/21 12:29:26;;;;;;;0.70;0.70;;;20.10;82.10;;;;;;5095864;28;20052;-76
2023/04/21 12:31:52;;;;;;;0.85;0.70;;;20.00;81.20;;;;;;5078873;28;20505;-76
2023/04/21 12:34:18;;;;;;;1.58;0.60;;;19.90;81.00;;;;;;5078922;28;20032;-77
2023/04/21 12:36:43;;;;;;;0.77;0.65;;;19.90;81.10;;;;;;5097292;28;20373;-77
2023/04/21 12:39:09;;;;;;;0.55;0.55;;;19.90;81.30;;;;;;5096824;28;20048;-76
2023/04/21 12:41:35;;;;;;;0.95;0.70;;;20.00;79.60;;;;;;5097117;28;20040;-76
2023/04/21 12:44:01;;;;;;;0.75;0.65;;;20.10;80.30;;;;;;5096772;28;20388;-76
2023/04/21 12:46:27;;;;;;;0.55;0.50;;;20.20;79.80;;;;;;5097059;28;20043;-76
2023/04/21 12:48:52;;;;;;;1.55;0.60;;;20.20;77.80;;;;;;5095694;28;20052;-77
2023/04/21 12:51:18;;;;;;;1.30;0.63;;;20.20;77.00;;;;;;5097226;28;20052;-76